KPBG/PBG METAR and TAF weather

Enter ICAO airport designator
Station Type Date Time Source
KPBG METAR 2020/09/24 10:53 UTC NOAA

KPBG 241053Z AUTO 19003KT 10SM CLR 12/10 A2987 RMK AO2 SLP114 T01170100


Station Type Date Time Source
KPBG Decoded METAR 2020/09/24 10:53 UTC NOAA

PLATTSBURGH INTERNATIONAL AIRPORT, NY, United States (KPBG) 44-39N 073-28W
Sep 24, 2020 - 06:53 AM EDT / 2020.09.24 1053 UTC
Wind: from the S (190 degrees) at 3 MPH (3 KT):0
Visibility: 10 mile(s):0
Sky conditions: clear
Temperature: 53.1 F (11.7 C)
Dew Point: 50.0 F (10.0 C)
Relative Humidity: 89%
Pressure (altimeter): 29.87 in. Hg (1011 hPa)
ob: KPBG 241053Z AUTO 19003KT 10SM CLR 12/10 A2987 RMK AO2 SLP114 T01170100
cycle: 11

Station Type Date Time Source
KPBG TAF 2020/09/24 12:22 UTC NOAA

TAF KPBG 241120Z 2412/2512 19005KT P6SM FEW060
FM241600 21005KT P6SM SCT090
FM250900 28005KT P6SM SCT060

Example: see airport list